sensor_id;sensor_type;location;lat;lon;timestamp;pressure;altitude;pressure_sealevel;temperature
20103;BMP180;10210;52.284;9.892;2024-03-23T00:54:50;99793.00;;;13.30
20103;BMP180;10210;52.284;9.892;2024-03-23T00:57:16;99790.00;;;13.20
20103;BMP180;10210;52.284;9.892;2024-03-23T00:59:42;99787.00;;;13.20
20103;BMP180;10210;52.284;9.892;2024-03-23T01:02:08;99788.00;;;13.20
20103;BMP180;10210;52.284;9.892;2024-03-23T01:04:34;99780.00;;;13.20
20103;BMP180;10210;52.284;9.892;2024-03-23T01:07:00;99783.00;;;13.20
20103;BMP180;10210;52.284;9.892;2024-03-23T01:09:26;99772.00;;;13.10
20103;BMP180;10210;52.284;9.892;2024-03-23T01:11:52;99776.00;;;13.10
20103;BMP180;10210;52.284;9.892;2024-03-23T01:14:18;99772.00;;;13.10
20103;BMP180;10210;52.284;9.892;2024-03-23T01:16:44;99768.00;;;13.10
20103;BMP180;10210;52.284;9.892;2024-03-23T01:19:10;99757.00;;;13.10
20103;BMP180;10210;52.284;9.892;2024-03-23T01:21:36;99757.00;;;13.10
20103;BMP180;10210;52.284;9.892;2024-03-23T01:24:02;99750.00;;;13.10
20103;BMP180;10210;52.284;9.892;2024-03-23T01:26:28;99755.00;;;13.10
20103;BMP180;10210;52.284;9.892;2024-03-23T01:28:54;99749.00;;;13.10
20103;BMP180;10210;52.284;9.892;2024-03-23T01:31:21;99748.00;;;13.00
20103;BMP180;10210;52.284;9.892;2024-03-23T01:33:47;99746.00;;;13.00
20103;BMP180;10210;52.284;9.892;2024-03-23T01:36:13;99741.00;;;13.00
20103;BMP180;10210;52.284;9.892;2024-03-23T01:38:39;99748.00;;;13.00
20103;BMP180;10210;52.284;9.892;2024-03-23T01:41:06;99739.00;;;13.00
20103;BMP180;10210;52.284;9.892;2024-03-23T01:43:32;99729.00;;;13.00
20103;BMP180;10210;52.284;9.892;2024-03-23T01:45:58;99735.00;;;13.00
20103;BMP180;10210;52.284;9.892;2024-03-23T01:48:24;99735.00;;;13.00
20103;BMP180;10210;52.284;9.892;2024-03-23T01:50:50;99728.00;;;13.00
20103;BMP180;10210;52.284;9.892;2024-03-23T01:53:16;99728.00;;;13.00
20103;BMP180;10210;52.284;9.892;2024-03-23T01:55:48;99725.00;;;13.00
20103;BMP180;10210;52.284;9.892;2024-03-23T01:58:14;99716.00;;;13.00
20103;BMP180;10210;52.284;9.892;2024-03-23T02:00:40;99724.00;;;13.00
20103;BMP180;10210;52.284;9.892;2024-03-23T02:03:27;99713.00;;;13.00
20103;BMP180;10210;52.284;9.892;2024-03-23T02:05:54;99717.00;;;13.00
20103;BMP180;10210;52.284;9.892;2024-03-23T02:08:21;99717.00;;;13.00
20103;BMP180;10210;52.284;9.892;2024-03-23T02:10:51;99700.00;;;12.90
20103;BMP180;10210;52.284;9.892;2024-03-23T02:13:18;99708.00;;;12.90
20103;BMP180;10210;52.284;9.892;2024-03-23T02:15:44;99700.00;;;12.90
20103;BMP180;10210;52.284;9.892;2024-03-23T02:18:11;99688.00;;;12.90
20103;BMP180;10210;52.284;9.892;2024-03-23T02:20:38;99697.00;;;12.90
20103;BMP180;10210;52.284;9.892;2024-03-23T02:23:13;99691.00;;;12.90
20103;BMP180;10210;52.284;9.892;2024-03-23T02:25:40;99694.00;;;12.90
20103;BMP180;10210;52.284;9.892;2024-03-23T02:28:06;99692.00;;;12.80
20103;BMP180;10210;52.284;9.892;2024-03-23T02:30:32;99688.00;;;12.80
20103;BMP180;10210;52.284;9.892;2024-03-23T02:32:58;99676.00;;;12.80
20103;BMP180;10210;52.284;9.892;2024-03-23T02:35:24;99681.00;;;12.80
20103;BMP180;10210;52.284;9.892;2024-03-23T02:37:50;99673.00;;;12.80
20103;BMP180;10210;52.284;9.892;2024-03-23T02:40:17;99667.00;;;12.80
20103;BMP180;10210;52.284;9.892;2024-03-23T02:42:43;99671.00;;;12.80
20103;BMP180;10210;52.284;9.892;2024-03-23T02:45:10;99668.00;;;12.80
20103;BMP180;10210;52.284;9.892;2024-03-23T02:47:35;99670.00;;;12.80
20103;BMP180;10210;52.284;9.892;2024-03-23T02:50:02;99669.00;;;12.80
20103;BMP180;10210;52.284;9.892;2024-03-23T02:52:28;99648.00;;;12.70
20103;BMP180;10210;52.284;9.892;2024-03-23T02:54:54;99654.00;;;12.80
20103;BMP180;10210;52.284;9.892;2024-03-23T02:57:20;99663.00;;;12.80
20103;BMP180;10210;52.284;9.892;2024-03-23T02:59:46;99652.00;;;12.80
20103;BMP180;10210;52.284;9.892;2024-03-23T03:02:13;99634.00;;;12.70
20103;BMP180;10210;52.284;9.892;2024-03-23T03:04:39;99649.00;;;12.70
20103;BMP180;10210;52.284;9.892;2024-03-23T03:07:05;99647.00;;;12.70
20103;BMP180;10210;52.284;9.892;2024-03-23T03:09:31;99648.00;;;12.70
20103;BMP180;10210;52.284;9.892;2024-03-23T03:11:58;99641.00;;;12.70
20103;BMP180;10210;52.284;9.892;2024-03-23T03:14:24;99643.00;;;12.70
20103;BMP180;10210;52.284;9.892;2024-03-23T03:16:50;99637.00;;;12.70
20103;BMP180;10210;52.284;9.892;2024-03-23T03:19:16;99639.00;;;12.70
20103;BMP180;10210;52.284;9.892;2024-03-23T03:21:43;99633.00;;;12.70
20103;BMP180;10210;52.284;9.892;2024-03-23T03:24:09;99638.00;;;12.70
20103;BMP180;10210;52.284;9.892;2024-03-23T03:26:35;99646.00;;;12.60
20103;BMP180;10210;52.284;9.892;2024-03-23T03:29:02;99630.00;;;12.60
20103;BMP180;10210;52.284;9.892;2024-03-23T03:31:28;99628.00;;;12.60
20103;BMP180;10210;52.284;9.892;2024-03-23T03:33:54;99633.00;;;12.60
20103;BMP180;10210;52.284;9.892;2024-03-23T03:36:20;99631.00;;;12.60
20103;BMP180;10210;52.284;9.892;2024-03-23T03:38:48;99634.00;;;12.70
20103;BMP180;10210;52.284;9.892;2024-03-23T03:41:14;99638.00;;;12.70
20103;BMP180;10210;52.284;9.892;2024-03-23T03:43:43;99631.00;;;12.70
20103;BMP180;10210;52.284;9.892;2024-03-23T03:46:09;99637.00;;;12.70
20103;BMP180;10210;52.284;9.892;2024-03-23T03:48:37;99639.00;;;12.70
20103;BMP180;10210;52.284;9.892;2024-03-23T03:51:03;99633.00;;;12.70
20103;BMP180;10210;52.284;9.892;2024-03-23T03:53:29;99626.00;;;12.70
20103;BMP180;10210;52.284;9.892;2024-03-23T03:55:56;99619.00;;;12.70
20103;BMP180;10210;52.284;9.892;2024-03-23T03:58:26;99621.00;;;12.70
20103;BMP180;10210;52.284;9.892;2024-03-23T04:00:52;99628.00;;;12.60
20103;BMP180;10210;52.284;9.892;2024-03-23T04:03:18;99622.00;;;12.60
20103;BMP180;10210;52.284;9.892;2024-03-23T04:05:49;99623.00;;;12.60
20103;BMP180;10210;52.284;9.892;2024-03-23T04:08:15;99609.00;;;12.60
20103;BMP180;10210;52.284;9.892;2024-03-23T04:10:42;99618.00;;;12.60
20103;BMP180;10210;52.284;9.892;2024-03-23T04:13:08;99619.00;;;12.50
20103;BMP180;10210;52.284;9.892;2024-03-23T04:15:34;99605.00;;;12.50
20103;BMP180;10210;52.284;9.892;2024-03-23T04:18:00;99603.00;;;12.50
20103;BMP180;10210;52.284;9.892;2024-03-23T04:20:26;99601.00;;;12.50
20103;BMP180;10210;52.284;9.892;2024-03-23T04:22:52;99595.00;;;12.50
20103;BMP180;10210;52.284;9.892;2024-03-23T04:25:19;99600.00;;;12.50
20103;BMP180;10210;52.284;9.892;2024-03-23T04:27:47;99598.00;;;12.50
20103;BMP180;10210;52.284;9.892;2024-03-23T04:30:13;99594.00;;;12.40
20103;BMP180;10210;52.284;9.892;2024-03-23T04:32:39;99590.00;;;12.40
20103;BMP180;10210;52.284;9.892;2024-03-23T04:35:06;99588.00;;;12.40
20103;BMP180;10210;52.284;9.892;2024-03-23T04:37:35;99589.00;;;12.40
20103;BMP180;10210;52.284;9.892;2024-03-23T04:40:02;99588.00;;;12.30
20103;BMP180;10210;52.284;9.892;2024-03-23T04:42:29;99583.00;;;12.30
20103;BMP180;10210;52.284;9.892;2024-03-23T04:44:55;99583.00;;;12.30
20103;BMP180;10210;52.284;9.892;2024-03-23T04:47:21;99590.00;;;12.30
20103;BMP180;10210;52.284;9.892;2024-03-23T04:49:48;99582.00;;;12.20
20103;BMP180;10210;52.284;9.892;2024-03-23T04:52:14;99575.00;;;12.10
20103;BMP180;10210;52.284;9.892;2024-03-23T04:54:42;99580.00;;;12.10
20103;BMP180;10210;52.284;9.892;2024-03-23T04:57:09;99583.00;;;12.00
20103;BMP180;10210;52.284;9.892;2024-03-23T04:59:35;99570.00;;;12.00
20103;BMP180;10210;52.284;9.892;2024-03-23T05:02:01;99555.00;;;11.90
20103;BMP180;10210;52.284;9.892;2024-03-23T05:04:28;99561.00;;;11.90
20103;BMP180;10210;52.284;9.892;2024-03-23T05:06:54;99556.00;;;11.90
20103;BMP180;10210;52.284;9.892;2024-03-23T05:09:22;99557.00;;;12.00
20103;BMP180;10210;52.284;9.892;2024-03-23T05:11:48;99573.00;;;12.00
20103;BMP180;10210;52.284;9.892;2024-03-23T05:14:14;99555.00;;;12.00
20103;BMP180;10210;52.284;9.892;2024-03-23T05:16:41;99548.00;;;12.00
20103;BMP180;10210;52.284;9.892;2024-03-23T05:19:08;99545.00;;;12.10
20103;BMP180;10210;52.284;9.892;2024-03-23T05:21:34;99544.00;;;12.10
20103;BMP180;10210;52.284;9.892;2024-03-23T05:24:00;99550.00;;;12.10
20103;BMP180;10210;52.284;9.892;2024-03-23T05:26:26;99546.00;;;12.10
20103;BMP180;10210;52.284;9.892;2024-03-23T05:28:52;99548.00;;;12.10
20103;BMP180;10210;52.284;9.892;2024-03-23T05:33:51;99557.00;;;12.00
20103;BMP180;10210;52.284;9.892;2024-03-23T05:36:18;99565.00;;;11.90
20103;BMP180;10210;52.284;9.892;2024-03-23T05:38:44;99572.00;;;11.80
20103;BMP180;10210;52.284;9.892;2024-03-23T05:41:10;99569.00;;;11.80
20103;BMP180;10210;52.284;9.892;2024-03-23T05:43:36;99581.00;;;11.80
20103;BMP180;10210;52.284;9.892;2024-03-23T05:46:02;99574.00;;;11.70
20103;BMP180;10210;52.284;9.892;2024-03-23T05:48:30;99575.00;;;11.70
20103;BMP180;10210;52.284;9.892;2024-03-23T05:50:57;99576.00;;;11.60
20103;BMP180;10210;52.284;9.892;2024-03-23T05:53:24;99575.00;;;11.60
20103;BMP180;10210;52.284;9.892;2024-03-23T05:55:51;99549.00;;;11.50
20103;BMP180;10210;52.284;9.892;2024-03-23T05:58:19;99570.00;;;11.50
20103;BMP180;10210;52.284;9.892;2024-03-23T06:00:47;99556.00;;;11.50
20103;BMP180;10210;52.284;9.892;2024-03-23T06:03:13;99550.00;;;11.50
20103;BMP180;10210;52.284;9.892;2024-03-23T06:05:39;99554.00;;;11.50
20103;BMP180;10210;52.284;9.892;2024-03-23T06:08:05;99552.00;;;11.50
20103;BMP180;10210;52.284;9.892;2024-03-23T06:10:35;99562.00;;;11.50
20103;BMP180;10210;52.284;9.892;2024-03-23T06:13:01;99540.00;;;11.50
20103;BMP180;10210;52.284;9.892;2024-03-23T06:15:27;99538.00;;;11.50
20103;BMP180;10210;52.284;9.892;2024-03-23T06:17:53;99537.00;;;11.50
20103;BMP180;10210;52.284;9.892;2024-03-23T06:20:19;99528.00;;;11.50
20103;BMP180;10210;52.284;9.892;2024-03-23T06:22:45;99529.00;;;11.50
20103;BMP180;10210;52.284;9.892;2024-03-23T06:25:11;99537.00;;;11.50
20103;BMP180;10210;52.284;9.892;2024-03-23T06:27:38;99527.00;;;11.60
20103;BMP180;10210;52.284;9.892;2024-03-23T06:30:08;99532.00;;;11.60
20103;BMP180;10210;52.284;9.892;2024-03-23T06:32:34;99541.00;;;11.60
20103;BMP180;10210;52.284;9.892;2024-03-23T06:35:00;99537.00;;;11.70
20103;BMP180;10210;52.284;9.892;2024-03-23T06:37:31;99540.00;;;11.70
20103;BMP180;10210;52.284;9.892;2024-03-23T06:39:57;99537.00;;;11.70
20103;BMP180;10210;52.284;9.892;2024-03-23T06:42:23;99535.00;;;11.80
20103;BMP180;10210;52.284;9.892;2024-03-23T06:44:49;99541.00;;;11.80
20103;BMP180;10210;52.284;9.892;2024-03-23T06:47:15;99548.00;;;11.80
20103;BMP180;10210;52.284;9.892;2024-03-23T06:49:42;99561.00;;;11.80
20103;BMP180;10210;52.284;9.892;2024-03-23T06:52:08;99549.00;;;11.80
20103;BMP180;10210;52.284;9.892;2024-03-23T06:54:34;99542.00;;;11.80
20103;BMP180;10210;52.284;9.892;2024-03-23T06:57:00;99539.00;;;11.80
20103;BMP180;10210;52.284;9.892;2024-03-23T06:59:26;99548.00;;;11.70
20103;BMP180;10210;52.284;9.892;2024-03-23T07:01:52;99553.00;;;11.70
20103;BMP180;10210;52.284;9.892;2024-03-23T07:04:18;99551.00;;;11.70
20103;BMP180;10210;52.284;9.892;2024-03-23T07:06:45;99546.00;;;11.70
20103;BMP180;10210;52.284;9.892;2024-03-23T07:09:11;99551.00;;;11.70
20103;BMP180;10210;52.284;9.892;2024-03-23T07:11:38;99551.00;;;11.70
20103;BMP180;10210;52.284;9.892;2024-03-23T07:14:04;99557.00;;;11.70
20103;BMP180;10210;52.284;9.892;2024-03-23T07:16:30;99550.00;;;11.60
20103;BMP180;10210;52.284;9.892;2024-03-23T07:18:57;99554.00;;;11.60
20103;BMP180;10210;52.284;9.892;2024-03-23T07:21:23;99554.00;;;11.60
20103;BMP180;10210;52.284;9.892;2024-03-23T07:23:49;99554.00;;;11.60
20103;BMP180;10210;52.284;9.892;2024-03-23T07:26:15;99543.00;;;11.60
20103;BMP180;10210;52.284;9.892;2024-03-23T07:28:44;99547.00;;;11.70
20103;BMP180;10210;52.284;9.892;2024-03-23T07:31:13;99537.00;;;11.70
20103;BMP180;10210;52.284;9.892;2024-03-23T07:33:45;99546.00;;;11.70
20103;BMP180;10210;52.284;9.892;2024-03-23T07:36:12;99548.00;;;11.70
20103;BMP180;10210;52.284;9.892;2024-03-23T07:38:41;99552.00;;;11.70
20103;BMP180;10210;52.284;9.892;2024-03-23T07:41:09;99545.00;;;11.70
20103;BMP180;10210;52.284;9.892;2024-03-23T07:43:39;99553.00;;;11.80
20103;BMP180;10210;52.284;9.892;2024-03-23T07:46:07;99553.00;;;11.80
20103;BMP180;10210;52.284;9.892;2024-03-23T07:48:33;99545.00;;;11.80
20103;BMP180;10210;52.284;9.892;2024-03-23T07:53:29;99551.00;;;11.80
20103;BMP180;10210;52.284;9.892;2024-03-23T07:55:57;99550.00;;;11.90
20103;BMP180;10210;52.284;9.892;2024-03-23T07:58:24;99566.00;;;11.90
20103;BMP180;10210;52.284;9.892;2024-03-23T08:00:50;99566.00;;;11.90
20103;BMP180;10210;52.284;9.892;2024-03-23T08:03:16;99566.00;;;11.90
20103;BMP180;10210;52.284;9.892;2024-03-23T08:05:43;99557.00;;;11.90
20103;BMP180;10210;52.284;9.892;2024-03-23T08:08:09;99551.00;;;11.90
20103;BMP180;10210;52.284;9.892;2024-03-23T08:10:35;99550.00;;;11.80
20103;BMP180;10210;52.284;9.892;2024-03-23T08:13:01;99545.00;;;11.80
20103;BMP180;10210;52.284;9.892;2024-03-23T08:15:29;99536.00;;;11.80
20103;BMP180;10210;52.284;9.892;2024-03-23T08:17:55;99540.00;;;11.80
20103;BMP180;10210;52.284;9.892;2024-03-23T08:20:21;99541.00;;;11.80
20103;BMP180;10210;52.284;9.892;2024-03-23T08:22:48;99542.00;;;11.80
20103;BMP180;10210;52.284;9.892;2024-03-23T08:25:14;99535.00;;;11.80
20103;BMP180;10210;52.284;9.892;2024-03-23T08:27:44;99545.00;;;11.80
20103;BMP180;10210;52.284;9.892;2024-03-23T08:30:10;99544.00;;;11.90
20103;BMP180;10210;52.284;9.892;2024-03-23T08:32:37;99539.00;;;11.90
20103;BMP180;10210;52.284;9.892;2024-03-23T08:35:03;99544.00;;;11.90
20103;BMP180;10210;52.284;9.892;2024-03-23T08:37:29;99540.00;;;11.90
20103;BMP180;10210;52.284;9.892;2024-03-23T08:39:55;99543.00;;;12.00
20103;BMP180;10210;52.284;9.892;2024-03-23T08:42:21;99544.00;;;12.10
20103;BMP180;10210;52.284;9.892;2024-03-23T08:44:48;99554.00;;;12.20
20103;BMP180;10210;52.284;9.892;2024-03-23T08:47:17;99552.00;;;12.30
20103;BMP180;10210;52.284;9.892;2024-03-23T08:49:44;99561.00;;;12.40
20103;BMP180;10210;52.284;9.892;2024-03-23T08:52:10;99561.00;;;12.40
20103;BMP180;10210;52.284;9.892;2024-03-23T08:54:36;99544.00;;;12.50
20103;BMP180;10210;52.284;9.892;2024-03-23T08:57:03;99551.00;;;12.80
20103;BMP180;10210;52.284;9.892;2024-03-23T08:59:29;99557.00;;;13.10
20103;BMP180;10210;52.284;9.892;2024-03-23T09:01:55;99563.00;;;13.30
20103;BMP180;10210;52.284;9.892;2024-03-23T09:04:22;99561.00;;;13.50
20103;BMP180;10210;52.284;9.892;2024-03-23T09:06:48;99563.00;;;13.60
20103;BMP180;10210;52.284;9.892;2024-03-23T09:09:14;99552.00;;;13.70
20103;BMP180;10210;52.284;9.892;2024-03-23T09:11:40;99554.00;;;13.80
20103;BMP180;10210;52.284;9.892;2024-03-23T09:14:06;99564.00;;;13.90
20103;BMP180;10210;52.284;9.892;2024-03-23T09:16:32;99538.00;;;13.80
20103;BMP180;10210;52.284;9.892;2024-03-23T09:18:58;99546.00;;;13.70
20103;BMP180;10210;52.284;9.892;2024-03-23T09:21:24;99552.00;;;13.60
20103;BMP180;10210;52.284;9.892;2024-03-23T09:23:50;99566.00;;;13.50
20103;BMP180;10210;52.284;9.892;2024-03-23T09:26:16;99572.00;;;13.40
20103;BMP180;10210;52.284;9.892;2024-03-23T09:28:42;99580.00;;;13.30
20103;BMP180;10210;52.284;9.892;2024-03-23T09:31:09;99572.00;;;13.40
20103;BMP180;10210;52.284;9.892;2024-03-23T09:33:40;99570.00;;;13.50
20103;BMP180;10210;52.284;9.892;2024-03-23T09:36:09;99568.00;;;13.70
20103;BMP180;10210;52.284;9.892;2024-03-23T09:38:35;99570.00;;;13.90
20103;BMP180;10210;52.284;9.892;2024-03-23T09:41:10;99563.00;;;14.00
20103;BMP180;10210;52.284;9.892;2024-03-23T09:43:36;99555.00;;;14.10
20103;BMP180;10210;52.284;9.892;2024-03-23T09:46:02;99552.00;;;14.30
20103;BMP180;10210;52.284;9.892;2024-03-23T09:48:29;99566.00;;;14.40
20103;BMP180;10210;52.284;9.892;2024-03-23T09:50:55;99555.00;;;14.60
20103;BMP180;10210;52.284;9.892;2024-03-23T09:53:21;99550.00;;;14.70
20103;BMP180;10210;52.284;9.892;2024-03-23T09:55:48;99549.00;;;14.90
20103;BMP180;10210;52.284;9.892;2024-03-23T09:58:16;99554.00;;;15.00
20103;BMP180;10210;52.284;9.892;2024-03-23T10:00:43;99566.00;;;15.10
20103;BMP180;10210;52.284;9.892;2024-03-23T10:03:09;99545.00;;;15.20
20103;BMP180;10210;52.284;9.892;2024-03-23T10:05:37;99534.00;;;15.30
20103;BMP180;10210;52.284;9.892;2024-03-23T10:10:45;99537.00;;;15.40
20103;BMP180;10210;52.284;9.892;2024-03-23T10:13:24;99540.00;;;15.40
20103;BMP180;10210;52.284;9.892;2024-03-23T10:15:55;99537.00;;;15.40
20103;BMP180;10210;52.284;9.892;2024-03-23T10:18:22;99544.00;;;15.40
20103;BMP180;10210;52.284;9.892;2024-03-23T10:21:10;99546.00;;;15.20
20103;BMP180;10210;52.284;9.892;2024-03-23T10:23:38;99563.00;;;15.10
20103;BMP180;10210;52.284;9.892;2024-03-23T10:26:25;99535.00;;;14.90
20103;BMP180;10210;52.284;9.892;2024-03-23T10:28:58;99528.00;;;14.80
20103;BMP180;10210;52.284;9.892;2024-03-23T10:31:33;99532.00;;;14.70
20103;BMP180;10210;52.284;9.892;2024-03-23T10:34:02;99542.00;;;14.70
20103;BMP180;10210;52.284;9.892;2024-03-23T10:36:30;99531.00;;;14.80
20103;BMP180;10210;52.284;9.892;2024-03-23T10:38:56;99532.00;;;14.80
20103;BMP180;10210;52.284;9.892;2024-03-23T10:41:28;99529.00;;;14.90
20103;BMP180;10210;52.284;9.892;2024-03-23T10:43:58;99516.00;;;14.90
20103;BMP180;10210;52.284;9.892;2024-03-23T10:46:25;99531.00;;;14.90
20103;BMP180;10210;52.284;9.892;2024-03-23T10:48:52;99527.00;;;14.90
20103;BMP180;10210;52.284;9.892;2024-03-23T10:51:18;99520.00;;;14.90
20103;BMP180;10210;52.284;9.892;2024-03-23T10:53:45;99518.00;;;14.80
20103;BMP180;10210;52.284;9.892;2024-03-23T10:56:13;99517.00;;;14.80
20103;BMP180;10210;52.284;9.892;2024-03-23T10:58:44;99514.00;;;14.70
20103;BMP180;10210;52.284;9.892;2024-03-23T11:01:12;99534.00;;;14.70
20103;BMP180;10210;52.284;9.892;2024-03-23T11:03:40;99534.00;;;14.60
20103;BMP180;10210;52.284;9.892;2024-03-23T11:06:10;99542.00;;;14.50
20103;BMP180;10210;52.284;9.892;2024-03-23T11:08:38;99547.00;;;14.40
20103;BMP180;10210;52.284;9.892;2024-03-23T11:11:21;99556.00;;;14.20
20103;BMP180;10210;52.284;9.892;2024-03-23T11:13:51;99544.00;;;14.20
20103;BMP180;10210;52.284;9.892;2024-03-23T11:16:27;99550.00;;;14.20
20103;BMP180;10210;52.284;9.892;2024-03-23T11:22:05;99539.00;;;14.10
20103;BMP180;10210;52.284;9.892;2024-03-23T11:24:32;99546.00;;;14.10
20103;BMP180;10210;52.284;9.892;2024-03-23T11:26:58;99547.00;;;14.10
20103;BMP180;10210;52.284;9.892;2024-03-23T11:29:27;99554.00;;;14.10
20103;BMP180;10210;52.284;9.892;2024-03-23T11:31:55;99563.00;;;14.00
20103;BMP180;10210;52.284;9.892;2024-03-23T11:34:22;99570.00;;;13.90
20103;BMP180;10210;52.284;9.892;2024-03-23T11:36:48;99575.00;;;13.70
20103;BMP180;10210;52.284;9.892;2024-03-23T11:39:18;99557.00;;;13.60
20103;BMP180;10210;52.284;9.892;2024-03-23T11:41:55;99543.00;;;13.40
20103;BMP180;10210;52.284;9.892;2024-03-23T11:44:23;99547.00;;;13.30
20103;BMP180;10210;52.284;9.892;2024-03-23T11:46:49;99547.00;;;13.20
20103;BMP180;10210;52.284;9.892;2024-03-23T11:49:27;99550.00;;;13.20
20103;BMP180;10210;52.284;9.892;2024-03-23T11:51:54;99553.00;;;13.30
20103;BMP180;10210;52.284;9.892;2024-03-23T11:54:25;99549.00;;;13.30
20103;BMP180;10210;52.284;9.892;2024-03-23T11:56:58;99553.00;;;13.40
20103;BMP180;10210;52.284;9.892;2024-03-23T11:59:37;99556.00;;;13.40
20103;BMP180;10210;52.284;9.892;2024-03-23T12:02:08;99554.00;;;13.40
20103;BMP180;10210;52.284;9.892;2024-03-23T12:04:36;99548.00;;;13.50
20103;BMP180;10210;52.284;9.892;2024-03-23T12:07:16;99549.00;;;13.50
20103;BMP180;10210;52.284;9.892;2024-03-23T12:09:46;99552.00;;;13.40
20103;BMP180;10210;52.284;9.892;2024-03-23T12:12:16;99545.00;;;13.40
20103;BMP180;10210;52.284;9.892;2024-03-23T12:15:02;99556.00;;;13.30
20103;BMP180;10210;52.284;9.892;2024-03-23T12:17:29;99557.00;;;13.20
20103;BMP180;10210;52.284;9.892;2024-03-23T12:19:55;99566.00;;;13.10
20103;BMP180;10210;52.284;9.892;2024-03-23T12:22:21;99565.00;;;13.00
20103;BMP180;10210;52.284;9.892;2024-03-23T12:24:49;99564.00;;;12.90
20103;BMP180;10210;52.284;9.892;2024-03-23T12:27:15;99567.00;;;12.80
20103;BMP180;10210;52.284;9.892;2024-03-23T12:29:43;99560.00;;;12.70
20103;BMP180;10210;52.284;9.892;2024-03-23T12:32:12;99560.00;;;12.70
20103;BMP180;10210;52.284;9.892;2024-03-23T12:34:39;99565.00;;;12.60
20103;BMP180;10210;52.284;9.892;2024-03-23T12:37:05;99568.00;;;12.50
20103;BMP180;10210;52.284;9.892;2024-03-23T12:39:35;99575.00;;;12.50
20103;BMP180;10210;52.284;9.892;2024-03-23T12:42:01;99575.00;;;12.50
20103;BMP180;10210;52.284;9.892;2024-03-23T12:44:30;99577.00;;;12.50
20103;BMP180;10210;52.284;9.892;2024-03-23T12:46:57;99577.00;;;12.50
20103;BMP180;10210;52.284;9.892;2024-03-23T12:49:23;99583.00;;;12.60
20103;BMP180;10210;52.284;9.892;2024-03-23T12:51:56;99587.00;;;12.60
20103;BMP180;10210;52.284;9.892;2024-03-23T13:07:22;99586.00;;;12.40
20103;BMP180;10210;52.284;9.892;2024-03-23T13:09:53;99578.00;;;12.40
20103;BMP180;10210;52.284;9.892;2024-03-23T13:12:22;99555.00;;;12.40
20103;BMP180;10210;52.284;9.892;2024-03-23T13:14:48;99565.00;;;12.40
20103;BMP180;10210;52.284;9.892;2024-03-23T13:17:14;99570.00;;;12.40
20103;BMP180;10210;52.284;9.892;2024-03-23T13:19:41;99565.00;;;12.40
20103;BMP180;10210;52.284;9.892;2024-03-23T13:22:07;99561.00;;;12.40
20103;BMP180;10210;52.284;9.892;2024-03-23T13:24:35;99564.00;;;12.40
20103;BMP180;10210;52.284;9.892;2024-03-23T13:27:02;99551.00;;;12.50
20103;BMP180;10210;52.284;9.892;2024-03-23T13:29:28;99556.00;;;12.60
20103;BMP180;10210;52.284;9.892;2024-03-23T13:32:10;99561.00;;;13.00
20103;BMP180;10210;52.284;9.892;2024-03-23T13:34:36;99562.00;;;13.00
20103;BMP180;10210;52.284;9.892;2024-03-23T13:37:03;99549.00;;;13.00
20103;BMP180;10210;52.284;9.892;2024-03-23T13:39:30;99551.00;;;13.00
20103;BMP180;10210;52.284;9.892;2024-03-23T13:41:56;99541.00;;;13.00
20103;BMP180;10210;52.284;9.892;2024-03-23T13:44:22;99546.00;;;13.00
20103;BMP180;10210;52.284;9.892;2024-03-23T13:46:48;99542.00;;;13.00
20103;BMP180;10210;52.284;9.892;2024-03-23T13:49:28;99537.00;;;13.00
20103;BMP180;10210;52.284;9.892;2024-03-23T13:51:55;99546.00;;;13.10
20103;BMP180;10210;52.284;9.892;2024-03-23T13:54:21;99550.00;;;13.20
20103;BMP180;10210;52.284;9.892;2024-03-23T13:56:55;99546.00;;;13.20
20103;BMP180;10210;52.284;9.892;2024-03-23T13:59:22;99549.00;;;13.40
20103;BMP180;10210;52.284;9.892;2024-03-23T14:01:52;99550.00;;;13.40
20103;BMP180;10210;52.284;9.892;2024-03-23T14:04:18;99551.00;;;13.40
20103;BMP180;10210;52.284;9.892;2024-03-23T14:06:46;99555.00;;;13.40
20103;BMP180;10210;52.284;9.892;2024-03-23T14:09:12;99562.00;;;13.50
20103;BMP180;10210;52.284;9.892;2024-03-23T14:11:40;99557.00;;;13.50
20103;BMP180;10210;52.284;9.892;2024-03-23T14:14:10;99568.00;;;13.50
20103;BMP180;10210;52.284;9.892;2024-03-23T14:16:36;99562.00;;;13.50
20103;BMP180;10210;52.284;9.892;2024-03-23T14:19:08;99580.00;;;13.50
20103;BMP180;10210;52.284;9.892;2024-03-23T14:21:37;99569.00;;;13.40
20103;BMP180;10210;52.284;9.892;2024-03-23T14:24:04;99571.00;;;13.40
20103;BMP180;10210;52.284;9.892;2024-03-23T14:26:30;99571.00;;;13.40
20103;BMP180;10210;52.284;9.892;2024-03-23T14:28:56;99579.00;;;13.30
20103;BMP180;10210;52.284;9.892;2024-03-23T14:31:22;99569.00;;;13.30
20103;BMP180;10210;52.284;9.892;2024-03-23T14:33:51;99565.00;;;13.30
20103;BMP180;10210;52.284;9.892;2024-03-23T14:36:17;99570.00;;;13.30
20103;BMP180;10210;52.284;9.892;2024-03-23T14:38:52;99576.00;;;13.30
20103;BMP180;10210;52.284;9.892;2024-03-23T14:41:19;99579.00;;;13.30
20103;BMP180;10210;52.284;9.892;2024-03-23T14:43:51;99595.00;;;13.30
20103;BMP180;10210;52.284;9.892;2024-03-23T14:46:19;99613.00;;;13.10
20103;BMP180;10210;52.284;9.892;2024-03-23T14:48:46;99606.00;;;12.90
20103;BMP180;10210;52.284;9.892;2024-03-23T14:51:12;99607.00;;;12.70
20103;BMP180;10210;52.284;9.892;2024-03-23T14:53:40;99607.00;;;12.50
20103;BMP180;10210;52.284;9.892;2024-03-23T14:56:07;99594.00;;;12.40
20103;BMP180;10210;52.284;9.892;2024-03-23T14:58:38;99574.00;;;12.30
20103;BMP180;10210;52.284;9.892;2024-03-23T15:01:05;99562.00;;;12.20
20103;BMP180;10210;52.284;9.892;2024-03-23T15:03:38;99561.00;;;12.10
20103;BMP180;10210;52.284;9.892;2024-03-23T15:06:06;99541.00;;;12.10
20103;BMP180;10210;52.284;9.892;2024-03-23T15:08:32;99553.00;;;12.20
20103;BMP180;10210;52.284;9.892;2024-03-23T15:11:02;99547.00;;;12.20
20103;BMP180;10210;52.284;9.892;2024-03-23T15:13:34;99546.00;;;12.30
20103;BMP180;10210;52.284;9.892;2024-03-23T15:16:00;99541.00;;;12.40
20103;BMP180;10210;52.284;9.892;2024-03-23T15:18:26;99549.00;;;12.50
20103;BMP180;10210;52.284;9.892;2024-03-23T15:20:55;99549.00;;;12.60
20103;BMP180;10210;52.284;9.892;2024-03-23T15:23:22;99545.00;;;12.70
20103;BMP180;10210;52.284;9.892;2024-03-23T15:25:57;99530.00;;;12.70
20103;BMP180;10210;52.284;9.892;2024-03-23T15:28:24;99541.00;;;12.80